createdAt,value
2019-02-22T00:02:38.100Z,32.20
2019-02-22T00:05:06.429Z,30.40
2019-02-22T00:07:34.063Z,27.90
2019-02-22T00:10:01.724Z,34.23
2019-02-22T00:12:29.427Z,28.53
2019-02-22T00:14:57.192Z,30.73
2019-02-22T00:17:24.816Z,27.93
2019-02-22T00:19:52.447Z,28.97
2019-02-22T00:22:20.156Z,32.77
2019-02-22T00:24:47.760Z,28.43
2019-02-22T00:27:15.403Z,30.23
2019-02-22T00:29:43.035Z,28.50
2019-02-22T00:32:10.702Z,28.83
2019-02-22T00:34:38.354Z,28.80
2019-02-22T00:37:05.985Z,27.43
2019-02-22T00:39:33.616Z,28.40
2019-02-22T00:42:01.235Z,25.37
2019-02-22T00:44:28.900Z,27.87
2019-02-22T00:46:56.543Z,28.33
2019-02-22T00:49:24.244Z,27.47
2019-02-22T00:51:51.872Z,29.33
2019-02-22T00:54:19.552Z,27.57
2019-02-22T00:56:47.215Z,25.67
2019-02-22T00:59:14.888Z,26.97
2019-02-22T01:01:42.500Z,26.57
2019-02-22T01:04:10.292Z,25.30
2019-02-22T01:06:37.905Z,30.03
2019-02-22T01:09:05.649Z,26.00
2019-02-22T01:11:33.384Z,27.30
2019-02-22T01:14:01.005Z,27.57
2019-02-22T01:16:28.681Z,28.30
2019-02-22T01:18:56.319Z,27.17
2019-02-22T01:21:23.976Z,27.60
2019-02-22T01:23:51.603Z,27.67
2019-02-22T01:26:19.263Z,27.23
2019-02-22T01:28:46.924Z,29.47
2019-02-22T01:31:14.555Z,25.83
2019-02-22T01:33:42.224Z,27.60
2019-02-22T01:36:09.853Z,29.60
2019-02-22T01:38:37.564Z,30.43
2019-02-22T01:41:05.180Z,26.97
2019-02-22T01:43:33.502Z,26.00
2019-02-22T01:46:01.232Z,29.07
2019-02-22T01:48:28.883Z,29.17
2019-02-22T01:50:56.519Z,30.73
2019-02-22T01:53:24.128Z,28.23
2019-02-22T01:55:51.828Z,29.80
2019-02-22T01:58:19.441Z,27.37
2019-02-22T02:00:47.111Z,27.50
2019-02-22T02:03:14.745Z,28.30
2019-02-22T02:05:42.450Z,29.33
2019-02-22T02:08:10.104Z,30.13
2019-02-22T02:10:37.833Z,28.90
2019-02-22T02:13:05.517Z,28.13
2019-02-22T02:15:33.163Z,27.20
2019-02-22T02:18:00.798Z,32.03
2019-02-22T02:20:28.471Z,30.07
2019-02-22T02:22:56.095Z,26.30
2019-02-22T02:25:23.696Z,26.47
2019-02-22T02:27:51.351Z,35.43
2019-02-22T02:30:19.118Z,29.90
2019-02-22T02:32:46.763Z,29.50
2019-02-22T02:35:14.396Z,29.37
2019-02-22T02:37:42.101Z,33.13
2019-02-22T02:40:09.848Z,31.13
2019-02-22T02:42:37.463Z,28.73
2019-02-22T02:45:05.446Z,32.33
2019-02-22T02:47:33.080Z,33.83
2019-02-22T02:50:00.675Z,30.37
2019-02-22T02:52:28.445Z,32.33
2019-02-22T02:54:56.101Z,29.73
2019-02-22T02:57:23.762Z,32.27
2019-02-22T02:59:51.364Z,31.20
2019-02-22T03:02:29.127Z,30.57
2019-02-22T03:04:56.781Z,32.10
2019-02-22T03:07:58.835Z,29.43
2019-02-22T03:10:26.473Z,31.50
2019-02-22T03:12:54.154Z,32.70
2019-02-22T03:15:21.784Z,33.53
2019-02-22T03:17:49.388Z,31.10
2019-02-22T03:20:17.119Z,31.97
2019-02-22T03:22:44.751Z,34.33
2019-02-22T03:25:12.461Z,35.10
2019-02-22T03:27:40.112Z,33.97
2019-02-22T03:30:07.871Z,34.97
2019-02-22T03:32:35.515Z,30.77
2019-02-22T03:35:03.213Z,33.87
2019-02-22T03:37:30.844Z,32.20
2019-02-22T03:39:58.446Z,32.60
2019-02-22T03:42:26.234Z,32.83
2019-02-22T03:44:53.833Z,35.63
2019-02-22T03:47:21.470Z,36.57
2019-02-22T03:49:49.148Z,34.70
2019-02-22T03:52:23.635Z,35.93
2019-02-22T03:54:51.287Z,35.30
2019-02-22T03:57:18.888Z,38.50
2019-02-22T03:59:46.545Z,35.93
2019-02-22T04:02:14.143Z,34.13
2019-02-22T04:04:41.918Z,38.83
2019-02-22T04:07:09.565Z,38.53
2019-02-22T04:09:37.204Z,36.10
2019-02-22T04:12:04.854Z,36.30
2019-02-22T04:14:32.499Z,38.77
2019-02-22T04:17:00.118Z,35.13
2019-02-22T04:19:27.744Z,37.43
2019-02-22T04:21:55.366Z,37.27
2019-02-22T04:24:23.020Z,35.43
2019-02-22T04:26:50.673Z,43.43
2019-02-22T04:29:18.296Z,37.93
2019-02-22T04:31:45.965Z,43.53
2019-02-22T04:34:13.609Z,38.90
2019-02-22T04:36:41.237Z,39.30
2019-02-22T04:39:08.874Z,37.93
2019-02-22T04:41:36.533Z,39.67
2019-02-22T04:44:04.184Z,37.10
2019-02-22T04:46:31.772Z,37.70
2019-02-22T04:48:59.463Z,40.27
2019-02-22T04:51:27.064Z,35.50
2019-02-22T04:53:54.721Z,41.40
2019-02-22T04:56:22.319Z,44.50
2019-02-22T04:58:50.000Z,35.53
2019-02-22T05:01:17.628Z,40.73
2019-02-22T05:03:45.318Z,37.83
2019-02-22T05:06:12.971Z,39.93
2019-02-22T05:08:40.575Z,40.97
2019-02-22T05:11:08.246Z,40.33
2019-02-22T05:13:35.897Z,42.47
2019-02-22T05:16:03.539Z,41.10
2019-02-22T05:18:31.168Z,38.97
2019-02-22T05:20:58.820Z,40.97
2019-02-22T05:23:26.725Z,47.67
2019-02-22T05:25:54.394Z,43.40
2019-02-22T05:28:22.036Z,45.40
2019-02-22T05:30:49.692Z,45.37
2019-02-22T05:33:17.332Z,47.17
2019-02-22T05:35:44.974Z,47.63
2019-02-22T05:38:12.622Z,43.40
2019-02-22T05:40:40.248Z,53.03
2019-02-22T05:43:07.885Z,44.73
2019-02-22T05:45:35.504Z,50.13
2019-02-22T05:48:03.174Z,45.17
2019-02-22T05:50:30.800Z,47.10
2019-02-22T05:52:58.479Z,48.10
2019-02-22T05:55:26.109Z,48.90
2019-02-22T05:57:53.751Z,46.13
2019-02-22T06:00:21.364Z,44.97
2019-02-22T06:02:48.980Z,46.27
2019-02-22T06:05:16.662Z,49.07
2019-02-22T06:07:44.263Z,51.70
2019-02-22T06:10:11.939Z,48.00
2019-02-22T06:12:39.618Z,47.43
2019-02-22T06:15:07.249Z,49.07
2019-02-22T06:17:34.982Z,48.30
2019-02-22T06:20:02.680Z,47.57
2019-02-22T06:22:30.303Z,49.07
2019-02-22T06:24:57.930Z,50.83
2019-02-22T06:27:25.635Z,51.40
2019-02-22T06:29:53.252Z,46.53
2019-02-22T06:32:20.874Z,48.77
2019-02-22T06:34:48.545Z,44.53
2019-02-22T06:37:16.254Z,52.20
2019-02-22T06:39:43.972Z,51.63
2019-02-22T06:42:11.621Z,48.27
2019-02-22T06:44:39.252Z,50.20
2019-02-22T06:47:06.930Z,48.10
2019-02-22T06:49:34.579Z,46.57
2019-02-22T06:52:02.312Z,50.97
2019-02-22T06:54:29.941Z,48.53
2019-02-22T06:56:57.611Z,47.80
2019-02-22T06:59:25.260Z,49.60
2019-02-22T07:01:53.044Z,46.47
2019-02-22T07:04:20.675Z,49.47
2019-02-22T07:06:48.288Z,48.00
2019-02-22T07:09:15.963Z,51.23
2019-02-22T07:12:03.104Z,53.33
2019-02-22T07:14:30.785Z,52.67
2019-02-22T07:16:58.427Z,51.57
2019-02-22T07:19:26.020Z,50.43
2019-02-22T07:21:53.668Z,47.83
2019-02-22T07:24:21.283Z,48.90
2019-02-22T07:26:48.913Z,53.20
2019-02-22T07:29:16.553Z,52.97
2019-02-22T07:31:44.246Z,53.83
2019-02-22T07:34:11.856Z,50.30
2019-02-22T07:36:39.523Z,59.60
2019-02-22T07:39:07.243Z,56.03
2019-02-22T07:41:34.890Z,65.23
2019-02-22T07:44:02.559Z,56.43
2019-02-22T07:46:30.250Z,61.63
2019-02-22T07:48:57.885Z,65.07
2019-02-22T07:51:25.505Z,68.80
2019-02-22T07:53:53.512Z,66.57
2019-02-22T07:56:21.127Z,64.57
2019-02-22T07:58:48.775Z,66.57
2019-02-22T08:01:16.380Z,68.33
2019-02-22T08:03:44.046Z,67.47
2019-02-22T08:06:11.734Z,67.30
2019-02-22T08:08:39.355Z,59.00
2019-02-22T08:11:07.000Z,62.27
2019-02-22T08:13:34.720Z,61.60
2019-02-22T08:16:02.355Z,59.63
2019-02-22T08:18:29.971Z,55.70
2019-02-22T08:20:57.631Z,55.77
2019-02-22T08:23:25.245Z,56.73
2019-02-22T08:25:52.940Z,53.20
2019-02-22T08:28:20.524Z,51.47
2019-02-22T08:30:48.147Z,53.53
2019-02-22T08:33:15.809Z,53.50
2019-02-22T08:35:43.441Z,50.03
2019-02-22T08:38:11.096Z,54.47
2019-02-22T08:40:38.755Z,55.13
2019-02-22T08:43:06.411Z,51.13
2019-02-22T08:45:34.079Z,47.60
2019-02-22T08:48:01.703Z,51.40
2019-02-22T08:50:29.377Z,41.50
2019-02-22T08:52:57.070Z,40.57
2019-02-22T08:55:24.739Z,43.37
2019-02-22T08:57:52.381Z,43.73
2019-02-22T09:00:20.162Z,42.30
2019-02-22T09:02:48.125Z,40.87
2019-02-22T09:05:15.747Z,32.47
2019-02-22T09:07:43.376Z,42.77
2019-02-22T09:10:11.038Z,37.43
2019-02-22T09:12:38.648Z,36.80
2019-02-22T09:15:06.741Z,37.03
2019-02-22T09:17:34.338Z,38.37
2019-02-22T09:20:02.134Z,34.70
2019-02-22T09:22:29.753Z,40.80
2019-02-22T09:24:57.479Z,39.00
2019-02-22T09:27:25.152Z,34.53
2019-02-22T09:29:58.971Z,40.47
2019-02-22T09:32:22.198Z,32.30
2019-02-22T09:34:49.818Z,34.53
2019-02-22T09:37:17.500Z,33.00
2019-02-22T09:39:45.185Z,31.60
2019-02-22T09:42:12.792Z,35.60
2019-02-22T09:44:40.415Z,30.73
2019-02-22T09:47:08.139Z,32.27
2019-02-22T09:49:35.830Z,28.03
2019-02-22T09:52:03.588Z,31.23
2019-02-22T09:54:31.242Z,26.13
2019-02-22T09:57:01.920Z,26.73
2019-02-22T09:59:29.375Z,27.47
2019-02-22T10:01:57.026Z,26.13
2019-02-22T10:04:24.667Z,32.93
2019-02-22T10:06:52.315Z,27.63
2019-02-22T10:09:19.949Z,26.70
2019-02-22T10:11:47.575Z,25.57
2019-02-22T10:14:15.254Z,20.87
2019-02-22T10:16:42.875Z,28.43
2019-02-22T10:19:10.522Z,20.97
2019-02-22T10:21:38.157Z,22.57
2019-02-22T10:24:05.805Z,21.57
2019-02-22T10:26:33.509Z,23.30
2019-02-22T10:29:01.101Z,29.93
2019-02-22T10:31:28.788Z,27.27
2019-02-22T10:33:56.436Z,29.70
2019-02-22T10:36:24.161Z,21.63
2019-02-22T10:38:51.811Z,18.97
2019-02-22T10:41:19.435Z,21.70
2019-02-22T10:43:47.117Z,22.17
2019-02-22T10:46:14.737Z,18.60
2019-02-22T10:48:42.388Z,22.73
2019-02-22T10:51:10.038Z,23.30
2019-02-22T10:53:37.680Z,22.03
2019-02-22T10:56:06.342Z,22.07
2019-02-22T10:58:34.396Z,21.10
2019-02-22T11:01:02.018Z,19.00
2019-02-22T11:03:29.651Z,15.33
2019-02-22T11:05:57.293Z,16.80
2019-02-22T11:08:24.931Z,22.07
2019-02-22T11:10:52.521Z,15.97
2019-02-22T11:13:21.382Z,16.47
2019-02-22T11:15:49.202Z,15.07
2019-02-22T11:18:16.828Z,15.83
2019-02-22T11:20:44.467Z,16.17
2019-02-22T11:23:12.112Z,14.97
2019-02-22T11:25:39.753Z,20.00
2019-02-22T11:28:07.460Z,17.23
2019-02-22T11:30:35.133Z,15.57
2019-02-22T11:33:02.838Z,10.90
2019-02-22T11:35:30.449Z,12.83
2019-02-22T11:37:58.130Z,14.07
2019-02-22T11:40:25.763Z,13.37
2019-02-22T11:42:53.544Z,14.63
2019-02-22T11:45:21.472Z,11.73
2019-02-22T11:47:49.034Z,10.63
2019-02-22T11:50:16.668Z,11.70
2019-02-22T11:52:44.354Z,11.27
2019-02-22T11:55:12.113Z,12.17
2019-02-22T11:57:39.721Z,11.53
2019-02-22T12:00:09.422Z,11.50
2019-02-22T12:02:37.076Z,8.87
2019-02-22T12:05:04.937Z,13.77
2019-02-22T12:07:32.619Z,10.47
2019-02-22T12:10:01.387Z,9.83
2019-02-22T12:12:29.035Z,14.73
2019-02-22T12:14:56.678Z,12.27
2019-02-22T12:17:24.413Z,9.83
2019-02-22T12:19:52.467Z,10.83
2019-02-22T12:22:20.071Z,9.97
2019-02-22T12:24:47.711Z,9.57
2019-02-22T12:27:15.385Z,11.83
2019-02-22T12:29:43.030Z,9.00
2019-02-22T12:32:10.690Z,11.07
2019-02-22T12:34:38.355Z,14.37
2019-02-22T12:37:06.114Z,17.10
2019-02-22T12:39:33.749Z,20.30
2019-02-22T12:42:01.413Z,19.60
2019-02-22T12:44:29.051Z,14.77
2019-02-22T12:46:56.812Z,9.40
2019-02-22T12:49:24.458Z,10.47
2019-02-22T12:51:52.082Z,6.73
2019-02-22T12:54:19.748Z,7.13
2019-02-22T12:56:57.566Z,8.90
2019-02-22T12:59:16.820Z,6.50
2019-02-22T13:01:44.528Z,7.10
2019-02-22T13:04:12.165Z,10.47
2019-02-22T13:06:39.847Z,7.97
2019-02-22T13:09:08.692Z,7.73
2019-02-22T13:11:36.308Z,7.57
2019-02-22T13:14:03.976Z,8.30
2019-02-22T13:16:31.646Z,7.67
2019-02-22T13:18:59.311Z,8.73
2019-02-22T13:21:26.950Z,9.70
2019-02-22T13:23:57.176Z,12.83
2019-02-22T13:26:24.038Z,10.00
2019-02-22T13:28:51.732Z,7.57
2019-02-22T13:31:29.401Z,9.87
2019-02-22T13:33:48.794Z,8.27
2019-02-22T13:36:16.420Z,8.30
2019-02-22T13:38:44.031Z,9.60
2019-02-22T13:41:11.810Z,6.17
2019-02-22T13:43:39.463Z,5.97
2019-02-22T13:46:07.064Z,9.03
2019-02-22T13:48:34.869Z,8.07
2019-02-22T13:51:02.466Z,9.57
2019-02-22T13:53:30.133Z,9.07
2019-02-22T13:55:57.790Z,8.53
2019-02-22T13:58:25.467Z,6.93
2019-02-22T14:00:53.085Z,7.90
2019-02-22T14:03:20.692Z,6.63
2019-02-22T14:05:48.331Z,8.33
2019-02-22T14:08:16.045Z,7.77
2019-02-22T14:10:43.753Z,9.70
2019-02-22T14:13:11.434Z,9.60
2019-02-22T14:15:39.129Z,7.90
2019-02-22T14:18:06.758Z,8.30
2019-02-22T14:20:34.442Z,8.43
2019-02-22T14:23:03.646Z,7.83
2019-02-22T14:25:31.479Z,8.77
2019-02-22T14:27:59.137Z,7.00
2019-02-22T14:30:26.772Z,7.50
2019-02-22T14:32:54.426Z,8.07
2019-02-22T14:35:22.039Z,7.73
2019-02-22T14:37:49.733Z,6.50
2019-02-22T14:40:17.352Z,7.77
2019-02-22T14:42:45.052Z,12.03
2019-02-22T14:45:12.788Z,8.80
2019-02-22T14:47:40.415Z,8.53
2019-02-22T14:50:10.639Z,7.40
2019-02-22T14:52:38.251Z,7.23
2019-02-22T14:55:06.467Z,7.70
2019-02-22T14:57:34.236Z,7.43
2019-02-22T15:00:01.900Z,7.60
2019-02-22T15:02:29.525Z,6.93
2019-02-22T15:04:57.220Z,8.37
2019-02-22T15:07:24.843Z,8.40
2019-02-22T15:09:52.453Z,8.07
2019-02-22T15:12:20.193Z,8.27
2019-02-22T15:14:47.820Z,11.47
2019-02-22T15:17:27.231Z,7.63
2019-02-22T15:19:54.040Z,9.03
2019-02-22T15:22:21.887Z,10.37
2019-02-22T15:24:49.516Z,7.80
2019-02-22T15:27:17.162Z,8.73
2019-02-22T15:29:44.825Z,9.43
2019-02-22T15:32:12.561Z,10.10
2019-02-22T15:34:40.320Z,10.57
2019-02-22T15:37:08.064Z,11.80
2019-02-22T15:39:35.720Z,10.63
2019-02-22T15:42:03.339Z,11.27
2019-02-22T15:44:31.299Z,11.20
2019-02-22T15:46:58.921Z,10.90
2019-02-22T15:49:26.619Z,16.50
2019-02-22T15:51:54.188Z,13.57
2019-02-22T15:54:21.813Z,13.80
2019-02-22T15:56:49.626Z,16.60
2019-02-22T15:59:17.291Z,13.93
2019-02-22T16:01:54.963Z,14.43
2019-02-22T16:04:33.859Z,17.63
2019-02-22T16:07:01.515Z,18.10
2019-02-22T16:09:29.126Z,16.80
2019-02-22T16:11:56.882Z,17.10
2019-02-22T16:14:24.540Z,18.47
2019-02-22T16:16:52.227Z,20.83
2019-02-22T16:19:19.928Z,18.67
2019-02-22T16:21:47.559Z,19.53
2019-02-22T16:24:15.179Z,21.13
2019-02-22T16:26:42.864Z,19.13
2019-02-22T16:29:10.471Z,20.43
2019-02-22T16:31:38.159Z,20.60
2019-02-22T16:34:05.760Z,22.87
2019-02-22T16:36:33.892Z,22.80
2019-02-22T16:39:01.519Z,23.13
2019-02-22T16:41:29.173Z,26.07
2019-02-22T16:43:56.807Z,22.27
2019-02-22T16:46:34.581Z,20.40
2019-02-22T16:48:53.891Z,20.83
2019-02-22T16:51:21.494Z,19.70
2019-02-22T16:53:51.448Z,21.13
2019-02-22T16:56:19.088Z,21.53
2019-02-22T16:58:46.720Z,20.00
2019-02-22T17:01:14.357Z,18.70
2019-02-22T17:03:42.012Z,19.80
2019-02-22T17:06:09.652Z,17.17
2019-02-22T17:08:37.283Z,19.40
2019-02-22T17:11:04.927Z,16.23
2019-02-22T17:13:32.713Z,21.57
2019-02-22T17:16:00.395Z,21.07
2019-02-22T17:18:28.022Z,21.37
2019-02-22T17:20:55.680Z,19.73
2019-02-22T17:23:23.341Z,20.00
2019-02-22T17:25:51.000Z,20.83
2019-02-22T17:28:18.647Z,19.03
2019-02-22T17:30:46.319Z,20.10
2019-02-22T17:33:13.968Z,17.07
2019-02-22T17:35:41.690Z,18.13
2019-02-22T17:38:09.305Z,17.30
2019-02-22T17:40:36.957Z,18.67
2019-02-22T17:43:04.650Z,19.40
2019-02-22T17:45:32.340Z,20.70
2019-02-22T17:47:59.973Z,18.53
2019-02-22T17:50:27.616Z,20.27
2019-02-22T17:52:55.482Z,16.77
2019-02-22T17:55:23.194Z,19.87
2019-02-22T17:57:50.851Z,18.33
2019-02-22T18:00:19.560Z,18.80
2019-02-22T18:02:47.369Z,18.57
2019-02-22T18:05:14.998Z,19.63
2019-02-22T18:07:42.642Z,18.70
2019-02-22T18:10:10.307Z,23.57
2019-02-22T18:12:37.953Z,19.70
2019-02-22T18:15:06.188Z,18.77
2019-02-22T18:17:33.863Z,18.40
2019-02-22T18:20:01.575Z,18.17
2019-02-22T18:22:29.218Z,20.50
2019-02-22T18:24:56.914Z,17.50
2019-02-22T18:27:24.528Z,17.40
2019-02-22T18:29:52.236Z,17.83
2019-02-22T18:32:19.883Z,20.50
2019-02-22T18:34:47.631Z,17.67
2019-02-22T18:37:15.315Z,16.60
2019-02-22T18:39:42.955Z,19.97
2019-02-22T18:42:10.645Z,18.93
2019-02-22T18:44:38.288Z,18.93
2019-02-22T18:47:05.976Z,17.40
2019-02-22T18:49:33.648Z,15.97
2019-02-22T18:52:01.300Z,16.43
2019-02-22T18:54:29.012Z,15.93
2019-02-22T18:56:56.716Z,16.77
2019-02-22T18:59:24.369Z,15.60
2019-02-22T19:01:52.025Z,18.27
2019-02-22T19:04:19.751Z,16.93
2019-02-22T19:06:47.400Z,15.03
2019-02-22T19:09:15.100Z,20.43
2019-02-22T19:11:42.804Z,18.90
2019-02-22T19:14:10.467Z,19.47
2019-02-22T19:16:38.177Z,21.47
2019-02-22T19:19:06.303Z,19.27
2019-02-22T19:21:33.981Z,23.63
2019-02-22T19:24:01.632Z,25.70
2019-02-22T19:26:29.277Z,27.17
2019-02-22T19:28:57.128Z,31.27
2019-02-22T19:31:24.773Z,30.67
2019-02-22T19:33:52.457Z,28.77
2019-02-22T19:36:20.083Z,32.03
2019-02-22T19:38:47.775Z,28.87
2019-02-22T19:41:15.404Z,33.97
2019-02-22T19:43:43.095Z,35.60
2019-02-22T19:46:10.737Z,36.63
2019-02-22T19:48:38.582Z,35.87
2019-02-22T19:51:06.366Z,35.40
2019-02-22T19:53:33.987Z,39.00
2019-02-22T19:56:01.661Z,41.50
2019-02-22T19:58:29.400Z,39.83
2019-02-22T20:00:57.201Z,40.00
2019-02-22T20:03:24.850Z,36.43
2019-02-22T20:05:52.511Z,37.67
2019-02-22T20:08:20.134Z,39.37
2019-02-22T20:10:48.078Z,40.67
2019-02-22T20:13:15.855Z,42.83
2019-02-22T20:15:43.499Z,39.63
2019-02-22T20:18:11.255Z,37.07
2019-02-22T20:20:38.891Z,35.20
2019-02-22T20:23:06.592Z,37.83
2019-02-22T20:25:34.270Z,39.67
2019-02-22T20:28:02.033Z,37.17
2019-02-22T20:30:29.713Z,39.77
2019-02-22T20:32:58.268Z,41.77
2019-02-22T20:35:26.024Z,37.27
2019-02-22T20:37:53.738Z,42.47
2019-02-22T20:40:21.550Z,43.90
2019-02-22T20:42:49.202Z,43.47
2019-02-22T20:45:16.831Z,44.23
2019-02-22T20:47:44.496Z,43.60
2019-02-22T20:50:12.193Z,47.77
2019-02-22T20:52:39.822Z,49.90
2019-02-22T20:55:07.798Z,41.73
2019-02-22T20:57:35.449Z,51.70
2019-02-22T21:00:03.596Z,51.43
2019-02-22T21:02:31.277Z,48.73
2019-02-22T21:04:58.937Z,49.00
2019-02-22T21:07:26.607Z,51.27
2019-02-22T21:09:54.282Z,47.07
2019-02-22T21:12:21.932Z,43.97
2019-02-22T21:14:49.600Z,44.50
2019-02-22T21:17:17.383Z,45.93
2019-02-22T21:19:45.004Z,49.10
2019-02-22T21:22:12.705Z,46.70
2019-02-22T21:24:40.315Z,46.33
2019-02-22T21:27:08.032Z,43.90
2019-02-22T21:29:35.687Z,43.63
2019-02-22T21:32:03.327Z,41.00
2019-02-22T21:34:30.984Z,40.53
2019-02-22T21:36:58.671Z,34.97
2019-02-22T21:39:26.357Z,43.87
2019-02-22T21:41:53.977Z,40.67
2019-02-22T21:44:21.615Z,36.40
2019-02-22T21:46:49.232Z,35.13
2019-02-22T21:49:16.872Z,35.80
2019-02-22T21:51:44.558Z,34.07
2019-02-22T21:54:12.224Z,34.43
2019-02-22T21:56:39.889Z,34.57
2019-02-22T21:59:07.499Z,31.70
2019-02-22T22:01:35.185Z,31.03
2019-02-22T22:04:02.809Z,32.90
2019-02-22T22:06:30.458Z,30.40
2019-02-22T22:08:58.128Z,29.63
2019-02-22T22:11:25.812Z,31.03
2019-02-22T22:13:53.468Z,29.23
2019-02-22T22:16:21.113Z,29.30
2019-02-22T22:18:48.794Z,29.37
2019-02-22T22:21:16.463Z,27.40
2019-02-22T22:23:44.149Z,26.97
2019-02-22T22:26:11.816Z,25.27
2019-02-22T22:28:39.468Z,27.47
2019-02-22T22:31:07.167Z,24.37
2019-02-22T22:33:34.908Z,26.67
2019-02-22T22:36:02.561Z,24.13
2019-02-22T22:38:30.227Z,23.63
2019-02-22T22:40:57.919Z,22.40
2019-02-22T22:43:25.591Z,24.03
2019-02-22T22:45:53.248Z,22.83
2019-02-22T22:48:20.924Z,24.00
2019-02-22T22:50:48.551Z,24.90
2019-02-22T22:53:16.234Z,25.27
2019-02-22T22:55:43.977Z,26.80
2019-02-22T22:58:11.607Z,23.83
2019-02-22T23:01:01.580Z,25.47
2019-02-22T23:03:29.195Z,23.67
2019-02-22T23:05:56.839Z,22.83
2019-02-22T23:08:24.489Z,23.07
2019-02-22T23:10:52.164Z,21.77
2019-02-22T23:13:19.865Z,22.43
2019-02-22T23:15:47.485Z,23.30
2019-02-22T23:18:15.163Z,21.73
2019-02-22T23:20:42.852Z,24.33
2019-02-22T23:23:10.556Z,23.20
2019-02-22T23:25:38.202Z,20.93
2019-02-22T23:28:05.840Z,23.57
2019-02-22T23:30:33.487Z,23.27
2019-02-22T23:33:01.157Z,24.03
2019-02-22T23:35:28.876Z,21.83
2019-02-22T23:37:56.580Z,19.70
2019-02-22T23:40:24.260Z,22.87
2019-02-22T23:42:51.977Z,22.37
2019-02-22T23:45:19.697Z,22.17
2019-02-22T23:47:47.415Z,21.87
2019-02-22T23:50:15.103Z,21.30
2019-02-22T23:52:42.754Z,22.53
2019-02-22T23:55:10.414Z,20.53
2019-02-22T23:57:38.071Z,25.87
